createdAt,value
2022-09-13T00:00:12.547Z,4.03
2022-09-13T00:02:39.881Z,3.88
2022-09-13T00:05:09.716Z,4.05
2022-09-13T00:07:38.330Z,3.47
2022-09-13T00:10:05.908Z,3.05
2022-09-13T00:12:34.501Z,3.13
2022-09-13T00:15:02.090Z,3.55
2022-09-13T00:17:29.697Z,4.22
2022-09-13T00:19:57.305Z,3.88
2022-09-13T00:22:26.890Z,3.20
2022-09-13T00:24:53.943Z,3.50
2022-09-13T00:27:23.061Z,3.13
2022-09-13T00:29:51.072Z,4.00
2022-09-13T00:32:18.260Z,4.10
2022-09-13T00:34:46.856Z,3.45
2022-09-13T00:37:14.454Z,4.05
2022-09-13T00:39:45.866Z,4.00
2022-09-13T00:45:11.363Z,3.67
2022-09-13T00:47:57.004Z,3.78
2022-09-13T00:50:48.702Z,3.97
2022-09-13T00:53:24.327Z,3.90
2022-09-13T00:55:58.955Z,3.58
2022-09-13T00:58:38.591Z,3.10
2022-09-13T01:01:12.271Z,4.00
2022-09-13T01:03:42.859Z,3.65
2022-09-13T01:06:17.429Z,4.65
2022-09-13T01:08:52.046Z,3.60
2022-09-13T01:11:48.890Z,4.13
2022-09-13T01:14:19.369Z,3.17
2022-09-13T01:16:51.414Z,3.60
2022-09-13T01:19:18.567Z,3.90
2022-09-13T01:22:05.233Z,3.72
2022-09-13T01:24:39.861Z,3.90
2022-09-13T01:27:25.534Z,4.32
2022-09-13T01:30:10.193Z,4.18
2022-09-13T01:32:58.869Z,3.65
2022-09-13T01:35:54.561Z,3.95
2022-09-13T01:39:10.352Z,3.50
2022-09-13T01:41:46.975Z,2.95
2022-09-13T01:44:52.716Z,3.63
2022-09-13T01:47:35.915Z,3.50
2022-09-13T01:53:07.709Z,4.32
2022-09-13T01:55:45.335Z,4.13
2022-09-13T01:58:38.041Z,4.03
2022-09-13T02:01:21.265Z,4.15
2022-09-13T02:04:02.352Z,3.95
2022-09-13T02:06:46.004Z,4.93
2022-09-13T02:09:24.631Z,4.13
2022-09-13T02:12:00.264Z,4.22
2022-09-13T02:14:40.930Z,3.80
2022-09-13T02:17:13.542Z,3.90
2022-09-13T02:22:17.532Z,3.60
2022-09-13T02:24:56.388Z,3.15
2022-09-13T02:27:33.037Z,3.95
2022-09-13T02:30:10.772Z,3.72
2022-09-13T02:32:44.291Z,4.00
2022-09-13T02:35:32.922Z,4.32
2022-09-13T02:38:15.588Z,3.70
2022-09-13T02:40:47.182Z,3.80
2022-09-13T02:43:24.831Z,3.80
2022-09-13T02:46:13.509Z,3.00
2022-09-13T02:49:05.197Z,3.80
2022-09-13T02:51:40.813Z,3.45
2022-09-13T02:54:43.558Z,3.67
2022-09-13T02:57:19.173Z,3.47
2022-09-13T02:59:48.772Z,3.78
2022-09-13T03:02:24.459Z,3.22
2022-09-13T03:04:54.656Z,3.50
2022-09-13T03:07:22.603Z,3.83
2022-09-13T03:09:56.542Z,4.28
2022-09-13T03:12:46.905Z,4.53
2022-09-13T03:15:34.940Z,3.05
2022-09-13T03:18:03.180Z,4.13
2022-09-13T03:21:01.894Z,3.92
2022-09-13T03:23:45.544Z,4.30
2022-09-13T03:26:39.224Z,3.40
2022-09-13T03:29:24.900Z,3.50
2022-09-13T03:32:36.666Z,4.30
2022-09-13T03:35:22.327Z,3.53
2022-09-13T03:38:11.037Z,3.75
2022-09-13T03:40:48.661Z,4.07
2022-09-13T03:43:27.293Z,3.53
2022-09-13T03:46:02.050Z,4.30
2022-09-13T03:48:32.525Z,3.42
2022-09-13T03:51:00.113Z,4.07
2022-09-13T03:53:30.498Z,3.35
2022-09-13T03:55:58.307Z,2.65
2022-09-13T03:58:28.937Z,3.10
2022-09-13T04:00:57.554Z,4.07
2022-09-13T04:03:26.091Z,3.90
2022-09-13T04:05:53.688Z,4.82
2022-09-13T04:08:22.331Z,4.55
2022-09-13T04:10:53.300Z,3.83
2022-09-13T04:13:26.074Z,4.05
2022-09-13T04:15:54.088Z,3.90
2022-09-13T04:18:21.680Z,4.28
2022-09-13T04:20:55.282Z,4.55
2022-09-13T04:23:24.322Z,4.28
2022-09-13T04:25:54.498Z,4.43
2022-09-13T04:28:24.092Z,4.75
2022-09-13T04:30:52.690Z,4.50
2022-09-13T04:33:20.644Z,4.63
2022-09-13T04:35:49.012Z,4.18
2022-09-13T04:38:17.463Z,3.38
2022-09-13T04:40:46.077Z,4.13
2022-09-13T04:43:14.668Z,4.32
2022-09-13T04:45:42.294Z,3.90
2022-09-13T04:48:09.366Z,2.95
2022-09-13T04:50:38.443Z,4.63
2022-09-13T04:53:06.033Z,4.05
2022-09-13T04:55:35.632Z,3.80
2022-09-13T04:58:04.227Z,3.92
2022-09-13T05:00:32.824Z,3.85
2022-09-13T05:03:00.418Z,4.25
2022-09-13T05:05:30.024Z,4.18
2022-09-13T05:07:57.603Z,4.95
2022-09-13T05:10:27.874Z,4.93
2022-09-13T05:12:54.803Z,4.55
2022-09-13T05:15:22.411Z,4.03
2022-09-13T05:17:51.005Z,4.35
2022-09-13T05:20:19.990Z,4.60
2022-09-13T05:22:47.187Z,4.00
2022-09-13T05:25:14.757Z,4.50
2022-09-13T05:27:42.380Z,4.55
2022-09-13T05:30:10.966Z,4.00
2022-09-13T05:32:39.562Z,5.75
2022-09-13T05:35:09.154Z,4.63
2022-09-13T05:37:36.733Z,3.95
2022-09-13T05:40:12.465Z,4.03
2022-09-13T05:42:40.962Z,4.90
2022-09-13T05:45:09.560Z,4.63
2022-09-13T05:47:38.157Z,4.43
2022-09-13T05:50:10.822Z,4.10
2022-09-13T05:52:41.363Z,4.30
2022-09-13T05:55:09.960Z,4.68
2022-09-13T05:57:38.610Z,4.88
2022-09-13T06:00:07.174Z,4.82
2022-09-13T06:02:39.886Z,3.90
2022-09-13T06:05:09.379Z,5.57
2022-09-13T06:07:36.980Z,4.38
2022-09-13T06:10:06.581Z,4.68
2022-09-13T06:12:34.203Z,5.75
2022-09-13T06:15:02.786Z,4.78
2022-09-13T06:17:30.356Z,5.07
2022-09-13T06:19:58.967Z,4.45
2022-09-13T06:22:34.583Z,4.13
2022-09-13T06:25:02.165Z,4.55
2022-09-13T06:27:32.779Z,4.60
2022-09-13T06:30:01.374Z,4.47
2022-09-13T06:32:28.959Z,4.88
2022-09-13T06:34:56.764Z,4.35
2022-09-13T06:37:25.161Z,4.43
2022-09-13T06:39:52.817Z,4.97
2022-09-13T06:42:22.360Z,4.60
2022-09-13T06:44:52.986Z,4.78
2022-09-13T06:47:22.559Z,4.80
2022-09-13T06:49:51.169Z,6.07
2022-09-13T06:52:18.745Z,5.43
2022-09-13T06:54:46.326Z,4.80
2022-09-13T06:57:15.939Z,4.85
2022-09-13T06:59:45.510Z,4.95
2022-09-13T09:25:41.794Z,3.90
2022-09-13T09:28:51.302Z,4.25
2022-09-13T09:31:36.413Z,3.85
2022-09-13T09:34:19.247Z,4.43
2022-09-13T09:37:15.684Z,3.53
2022-09-13T09:39:44.249Z,3.15
2022-09-13T09:42:18.462Z,3.20
2022-09-13T09:44:51.753Z,2.92
2022-09-13T09:47:29.104Z,2.88
2022-09-13T09:50:12.730Z,3.03
2022-09-13T09:53:04.285Z,3.03
2022-09-13T09:55:32.606Z,3.40
2022-09-13T09:58:08.774Z,3.33
2022-09-13T10:00:50.289Z,2.90
2022-09-13T10:03:20.311Z,2.25
2022-09-13T10:05:49.195Z,2.30
2022-09-13T10:08:34.469Z,2.38
2022-09-13T10:11:02.670Z,2.30
2022-09-13T10:13:32.070Z,2.33
2022-09-13T10:16:28.054Z,2.30
2022-09-13T10:18:55.823Z,3.15
2022-09-13T10:21:24.915Z,2.50
2022-09-13T10:24:23.397Z,2.78
2022-09-13T10:26:50.435Z,2.45
2022-09-13T10:29:18.724Z,2.00
2022-09-13T10:31:48.732Z,2.50
2022-09-13T10:34:30.282Z,2.15
2022-09-13T10:37:02.732Z,2.38
2022-09-13T10:39:34.980Z,1.80
2022-09-13T10:42:07.968Z,2.03
2022-09-13T10:44:45.881Z,1.98
2022-09-13T10:47:25.298Z,2.08
2022-09-13T10:49:55.419Z,2.08
2022-09-13T10:52:42.446Z,1.90
2022-09-13T10:55:19.032Z,2.15
2022-09-13T10:57:54.366Z,2.83
2022-09-13T11:00:26.028Z,2.10
2022-09-13T11:03:05.203Z,2.10
2022-09-13T11:05:57.535Z,1.73
2022-09-13T11:08:47.337Z,2.03
2022-09-13T11:11:40.682Z,1.80
2022-09-13T11:14:53.187Z,2.00
2022-09-13T11:17:40.780Z,1.67
2022-09-13T11:20:42.544Z,2.03
2022-09-13T11:23:28.616Z,2.25
2022-09-13T11:26:04.897Z,1.92
2022-09-13T11:28:58.731Z,1.88
2022-09-13T11:31:44.394Z,1.77
2022-09-13T11:34:24.523Z,2.00
2022-09-13T11:37:23.856Z,1.90
2022-09-13T11:40:17.240Z,1.70
2022-09-13T11:43:00.265Z,1.88
2022-09-13T11:45:35.893Z,1.73
2022-09-13T11:48:18.911Z,1.67
2022-09-13T11:50:55.254Z,1.50
2022-09-13T11:53:51.519Z,1.55
2022-09-13T11:56:29.543Z,1.35
2022-09-13T11:59:43.775Z,1.70
2022-09-13T12:02:45.161Z,1.40
2022-09-13T12:05:25.375Z,1.30
2022-09-13T12:08:10.431Z,1.50
2022-09-13T12:11:19.532Z,1.60
2022-09-13T12:13:49.615Z,1.48
2022-09-13T12:16:24.980Z,1.27
2022-09-13T12:18:56.915Z,1.60
2022-09-13T12:21:46.745Z,1.20
2022-09-13T12:24:28.452Z,1.38
2022-09-13T12:27:09.151Z,1.48
2022-09-13T12:29:50.387Z,1.10
2022-09-13T12:32:19.267Z,1.23
2022-09-13T12:35:06.184Z,0.93
2022-09-13T12:38:06.603Z,1.25
2022-09-13T12:41:14.272Z,1.48
2022-09-13T12:44:08.782Z,1.40
2022-09-13T12:46:46.477Z,1.30
2022-09-13T12:49:37.138Z,1.58
2022-09-13T12:52:23.694Z,1.30
2022-09-13T12:55:02.967Z,1.13
2022-09-13T12:57:50.451Z,1.20
2022-09-13T13:00:29.434Z,1.10
2022-09-13T13:03:05.602Z,1.20
2022-09-13T13:05:40.155Z,1.38
2022-09-13T13:08:27.093Z,1.38
2022-09-13T13:11:13.889Z,1.38
2022-09-13T13:13:53.007Z,1.98
2022-09-13T13:16:31.125Z,1.77
2022-09-13T13:18:59.549Z,1.42
2022-09-13T13:21:35.331Z,1.38
2022-09-13T13:24:17.310Z,1.50
2022-09-13T13:26:47.788Z,1.50
2022-09-13T13:29:17.371Z,1.67
2022-09-13T13:32:04.198Z,1.70
2022-09-13T13:34:32.050Z,1.48
2022-09-13T13:37:07.743Z,1.73
2022-09-13T13:39:36.112Z,1.55
2022-09-13T13:42:16.029Z,1.70
2022-09-13T13:44:43.906Z,1.45
2022-09-13T13:47:14.007Z,1.60
2022-09-13T13:49:40.813Z,1.90
2022-09-13T13:52:19.508Z,1.92
2022-09-13T13:54:49.644Z,1.48
2022-09-13T13:57:41.494Z,1.60
2022-09-13T14:00:22.456Z,1.55
2022-09-13T14:03:18.647Z,1.85
2022-09-13T14:06:04.370Z,1.73
2022-09-13T14:08:50.633Z,1.60
2022-09-13T14:11:32.383Z,1.58
2022-09-13T14:14:33.711Z,1.40
2022-09-13T14:17:24.324Z,1.48
2022-09-13T14:19:55.407Z,1.58
2022-09-13T14:22:24.863Z,1.50
2022-09-13T14:24:57.388Z,1.40
2022-09-13T14:27:36.535Z,1.35
2022-09-13T14:30:19.572Z,1.60
2022-09-13T14:32:51.554Z,1.42
2022-09-13T14:35:29.074Z,1.33
2022-09-13T14:38:09.869Z,1.30
2022-09-13T14:40:39.021Z,1.38
2022-09-13T14:43:17.436Z,1.63
2022-09-13T14:45:49.547Z,1.40
2022-09-13T14:48:24.944Z,1.60
2022-09-13T14:51:02.991Z,1.48
2022-09-13T14:53:34.427Z,1.40
2022-09-13T14:56:16.176Z,1.38
2022-09-13T14:58:53.247Z,1.45
2022-09-13T15:01:26.731Z,1.30
2022-09-13T15:03:57.374Z,1.42
2022-09-13T15:06:38.328Z,1.50
2022-09-13T15:09:11.733Z,1.58
2022-09-13T15:11:52.665Z,1.90
2022-09-13T15:14:28.224Z,1.90
2022-09-13T15:17:07.682Z,1.45
2022-09-13T15:19:43.315Z,1.50
2022-09-13T15:22:29.984Z,1.70
2022-09-13T15:24:58.282Z,2.30
2022-09-13T15:27:28.755Z,2.60
2022-09-13T15:29:58.669Z,1.58
2022-09-13T15:32:31.440Z,2.13
2022-09-13T15:35:00.056Z,1.60
2022-09-13T15:37:38.664Z,1.63
2022-09-13T15:40:23.094Z,1.83
2022-09-13T15:42:52.422Z,1.60
2022-09-13T15:45:20.557Z,1.70
2022-09-13T15:47:49.160Z,1.58
2022-09-13T15:50:27.769Z,2.28
2022-09-13T15:52:55.855Z,1.80
2022-09-13T15:55:23.135Z,1.67
2022-09-13T15:57:51.599Z,1.90
2022-09-13T16:00:26.121Z,2.22
2022-09-13T16:02:53.459Z,1.80
2022-09-13T16:05:20.813Z,1.80
2022-09-13T16:07:47.657Z,1.48
2022-09-13T16:10:18.895Z,1.80
2022-09-13T16:12:46.153Z,1.73
2022-09-13T16:15:14.133Z,2.83
2022-09-13T16:17:42.032Z,1.92
2022-09-13T16:20:14.226Z,2.03
2022-09-13T16:22:41.091Z,1.80
2022-09-13T16:25:08.718Z,2.03
2022-09-13T16:27:35.840Z,1.98
2022-09-13T16:30:02.710Z,2.10
2022-09-13T16:32:29.434Z,1.98
2022-09-13T16:34:56.567Z,1.95
2022-09-13T16:37:24.030Z,2.05
2022-09-13T16:39:50.974Z,2.00
2022-09-13T16:42:18.960Z,2.10
2022-09-13T16:44:45.785Z,1.60
2022-09-13T16:47:21.458Z,2.08
2022-09-13T16:49:49.106Z,1.73
2022-09-13T16:52:16.293Z,1.98
2022-09-13T16:54:46.297Z,1.75
2022-09-13T16:57:14.071Z,1.70
2022-09-13T16:59:43.749Z,1.40
2022-09-13T17:02:11.982Z,1.80
2022-09-13T17:04:39.325Z,1.48
2022-09-13T17:07:07.340Z,2.03
2022-09-13T17:09:35.337Z,1.90
2022-09-13T17:12:02.593Z,1.73
2022-09-13T17:14:29.853Z,1.70
2022-09-13T17:16:58.515Z,1.80
2022-09-13T17:19:30.477Z,1.70
2022-09-13T17:21:58.193Z,1.70
2022-09-13T17:24:27.167Z,2.20
2022-09-13T17:26:56.805Z,1.70
2022-09-13T17:29:25.837Z,2.05
2022-09-13T17:31:56.698Z,1.50
2022-09-13T17:34:24.345Z,1.67
2022-09-13T17:36:52.303Z,1.40
2022-09-13T17:39:20.490Z,1.60
2022-09-13T17:41:48.765Z,1.98
2022-09-13T17:44:16.457Z,1.88
2022-09-13T17:46:43.675Z,1.80
2022-09-13T17:49:10.890Z,1.73
2022-09-13T17:51:37.996Z,1.40
2022-09-13T17:54:07.621Z,2.10
2022-09-13T17:56:37.351Z,1.60
2022-09-13T17:59:20.302Z,1.73
2022-09-13T18:01:50.466Z,1.63
2022-09-13T18:04:19.507Z,1.80
2022-09-13T18:06:47.506Z,1.80
2022-09-13T18:09:16.039Z,1.92
2022-09-13T18:11:43.382Z,2.17
2022-09-13T18:14:15.954Z,1.67
2022-09-13T18:19:10.445Z,2.00
2022-09-13T18:21:37.622Z,2.00
2022-09-13T18:24:05.828Z,2.17
2022-09-13T18:26:32.891Z,1.85
2022-09-13T18:29:02.821Z,1.83
2022-09-13T18:31:32.818Z,1.17
2022-09-13T18:34:04.894Z,2.15
2022-09-13T18:36:36.198Z,2.28
2022-09-13T18:39:04.906Z,1.67
2022-09-13T18:41:40.657Z,2.00
2022-09-13T18:44:07.699Z,2.70
2022-09-13T18:46:35.767Z,2.10
2022-09-13T18:49:04.730Z,2.30
2022-09-13T18:51:37.350Z,2.85
2022-09-13T18:54:06.867Z,3.05
2022-09-13T18:56:34.912Z,2.33
2022-09-13T18:59:04.640Z,2.40
2022-09-13T19:01:35.411Z,2.70
2022-09-13T19:04:17.909Z,2.28
2022-09-13T19:06:47.153Z,2.63
2022-09-13T19:09:15.755Z,2.30
2022-09-13T19:11:47.767Z,2.40
2022-09-13T19:14:23.993Z,2.38
2022-09-13T19:16:53.342Z,2.50
2022-09-13T19:19:20.549Z,2.40
2022-09-13T19:21:47.904Z,2.35
2022-09-13T19:24:18.112Z,2.15
2022-09-13T19:26:47.100Z,2.90
2022-09-13T19:29:17.925Z,2.65
2022-09-13T19:31:50.012Z,2.53
2022-09-13T19:34:19.206Z,2.33
2022-09-13T19:36:46.660Z,1.73
2022-09-13T19:39:13.544Z,2.20
2022-09-13T19:41:41.878Z,2.25
2022-09-13T19:44:10.373Z,1.75
2022-09-13T19:46:39.824Z,1.73
2022-09-13T19:49:09.080Z,1.95
2022-09-13T19:51:38.744Z,2.25
2022-09-13T19:54:08.080Z,1.95
2022-09-13T19:56:39.842Z,2.20
2022-09-13T19:59:09.148Z,1.98
2022-09-13T20:01:38.847Z,1.50
2022-09-13T20:04:09.393Z,1.77
2022-09-13T20:06:41.890Z,2.03
2022-09-13T20:11:42.139Z,1.50
2022-09-13T20:14:09.466Z,1.67
2022-09-13T20:16:39.061Z,2.08
2022-09-13T20:19:29.673Z,1.77
2022-09-13T20:21:55.981Z,1.67
2022-09-13T20:24:22.868Z,1.60
2022-09-13T20:26:52.134Z,1.63
2022-09-13T20:29:19.077Z,1.73
2022-09-13T20:31:45.835Z,1.63
2022-09-13T20:34:15.209Z,1.35
2022-09-13T20:36:44.818Z,1.48
2022-09-13T20:39:11.692Z,1.50
2022-09-13T20:41:38.886Z,1.80
2022-09-13T20:44:07.222Z,1.67
2022-09-13T20:46:34.255Z,1.33
2022-09-13T20:49:01.514Z,1.50
2022-09-13T20:51:32.692Z,1.30
2022-09-13T20:54:01.947Z,1.58
2022-09-13T20:56:30.358Z,1.42
2022-09-13T20:59:00.147Z,1.30
2022-09-13T21:01:29.755Z,1.25
2022-09-13T21:03:58.152Z,1.73
2022-09-13T21:06:27.985Z,1.50
2022-09-13T21:08:56.382Z,1.38
2022-09-13T21:11:33.850Z,1.40
2022-09-13T21:14:06.192Z,1.33
2022-09-13T21:16:37.010Z,1.30
2022-09-13T21:19:04.024Z,1.50
2022-09-13T21:21:38.829Z,1.70
2022-09-13T21:24:09.869Z,1.30
2022-09-13T21:26:42.628Z,1.30
2022-09-13T21:29:11.432Z,1.27
2022-09-13T21:31:38.743Z,1.42
2022-09-13T21:34:14.517Z,1.60
2022-09-13T21:36:42.719Z,1.70
2022-09-13T21:39:10.200Z,1.10
2022-09-13T21:41:37.263Z,1.63
2022-09-13T21:44:04.966Z,1.20
2022-09-13T21:46:34.350Z,1.60
2022-09-13T21:49:07.300Z,1.15
2022-09-13T21:51:40.627Z,1.20
2022-09-13T21:54:10.057Z,1.38
2022-09-13T21:56:39.837Z,1.50
2022-09-13T21:59:18.010Z,1.38
2022-09-13T22:01:47.238Z,1.48
2022-09-13T22:04:24.681Z,1.63
2022-09-13T22:06:53.548Z,1.33
2022-09-13T22:09:27.530Z,1.95
2022-09-13T22:11:55.483Z,1.50
2022-09-13T22:14:22.594Z,1.80
2022-09-13T22:16:50.889Z,1.85
2022-09-13T22:19:26.515Z,1.83
2022-09-13T22:22:01.957Z,1.30
2022-09-13T22:24:32.436Z,1.65
2022-09-13T22:27:00.130Z,1.40
2022-09-13T22:29:27.504Z,1.33
2022-09-13T22:31:55.203Z,1.33
2022-09-13T22:34:24.615Z,1.25
2022-09-13T22:36:54.339Z,1.33
2022-09-13T22:39:21.140Z,1.20
2022-09-13T22:41:47.951Z,1.27
2022-09-13T22:44:15.545Z,2.33
2022-09-13T22:46:44.317Z,1.67
2022-09-13T22:49:16.976Z,1.60
2022-09-13T22:51:48.157Z,1.48
2022-09-13T22:54:16.835Z,1.50
2022-09-13T22:56:43.707Z,1.30
2022-09-13T22:59:18.676Z,1.42
2022-09-13T23:01:46.080Z,1.50
2022-09-13T23:04:14.440Z,1.23
2022-09-13T23:06:43.884Z,1.50
2022-09-13T23:09:18.356Z,1.30
2022-09-13T23:11:46.267Z,1.50
2022-09-13T23:14:15.569Z,2.00
2022-09-13T23:16:44.842Z,1.65
2022-09-13T23:19:14.020Z,1.50
2022-09-13T23:21:41.161Z,1.60
2022-09-13T23:24:13.787Z,2.17
2022-09-13T23:26:40.897Z,1.92
2022-09-13T23:29:10.923Z,2.42
2022-09-13T23:31:39.038Z,2.53
2022-09-13T23:34:07.926Z,2.40
2022-09-13T23:36:38.387Z,2.92
2022-09-13T23:39:08.527Z,1.67
2022-09-13T23:41:35.899Z,1.50
2022-09-13T23:44:03.443Z,2.50
2022-09-13T23:46:31.594Z,1.95
2022-09-13T23:48:58.461Z,1.98
2022-09-13T23:51:27.220Z,2.10
2022-09-13T23:54:00.538Z,3.30
2022-09-13T23:56:30.417Z,1.52
2022-09-13T23:58:59.464Z,2.55
